createdAt,value
2018-07-15T19:14:25.526Z,100944.15
2018-07-15T19:17:08.466Z,100945.65
2018-07-15T19:19:42.407Z,100954.89
2018-07-15T19:22:15.418Z,100959.94
2018-07-15T19:24:50.029Z,100954.75
2018-07-15T19:27:23.980Z,100956.57
2018-07-15T19:30:08.200Z,100946.34
2018-07-15T19:32:39.758Z,100946.19
2018-07-15T19:35:17.249Z,100944.50
2018-07-15T19:37:51.642Z,100958.58
2018-07-15T19:40:23.153Z,100958.72
2018-07-15T19:45:39.647Z,100962.69
2018-07-15T19:48:15.241Z,100962.92
2018-07-15T19:50:48.559Z,100969.16
2018-07-15T19:53:20.325Z,100976.50
2018-07-15T19:55:53.389Z,100984.02
2018-07-15T19:58:25.972Z,100982.96
2018-07-15T20:00:58.916Z,100987.69
2018-07-15T20:03:32.287Z,100982.19
2018-07-15T20:06:03.488Z,100994.42
2018-07-15T20:08:39.678Z,100993.44
2018-07-15T20:11:14.874Z,100995.15
2018-07-15T20:13:48.353Z,101001.59
2018-07-15T20:16:26.036Z,101000.05
2018-07-15T20:19:00.625Z,101006.98
2018-07-15T20:21:33.338Z,101002.19
2018-07-15T20:24:07.182Z,101003.97
2018-07-15T20:26:38.356Z,101003.83
2018-07-15T20:29:11.387Z,100997.25
2018-07-15T20:31:47.158Z,101000.55
2018-07-15T20:34:20.097Z,100997.74
2018-07-15T20:37:14.764Z,100997.44
2018-07-15T20:39:52.370Z,100991.92
2018-07-15T20:42:24.681Z,100998.35
2018-07-15T20:44:58.497Z,101001.23
2018-07-15T20:47:30.348Z,101004.52
2018-07-15T20:50:01.588Z,101003.59
2018-07-15T20:52:33.409Z,101003.03
2018-07-15T20:55:09.513Z,101000.03
2018-07-15T20:57:46.780Z,100996.61
2018-07-15T21:00:20.299Z,101002.37
2018-07-15T21:02:59.521Z,100993.92
2018-07-15T21:05:36.917Z,101002.51
2018-07-15T21:08:13.280Z,101004.44
2018-07-15T21:10:49.578Z,101002.55
2018-07-15T21:13:26.471Z,101009.98
2018-07-15T21:16:02.414Z,101006.31
2018-07-15T21:18:34.053Z,101002.22
2018-07-15T21:21:06.775Z,101009.64
2018-07-15T21:23:37.598Z,101011.26
2018-07-15T21:26:09.161Z,101017.97
2018-07-15T21:28:39.433Z,101018.59
2018-07-15T21:31:11.755Z,101015.41
2018-07-15T21:33:43.915Z,101013.39
2018-07-15T21:36:15.671Z,101017.55
2018-07-15T21:38:48.458Z,101019.52
2018-07-15T21:41:18.779Z,101015.33
2018-07-15T21:43:57.680Z,101014.20
2018-07-15T21:46:31.487Z,101023.11
2018-07-15T21:49:04.377Z,101019.95
2018-07-15T21:51:36.970Z,101022.16
2018-07-15T21:54:10.433Z,101016.77
2018-07-15T21:56:43.877Z,101010.08
2018-07-15T21:59:14.253Z,101008.77
2018-07-15T22:01:45.602Z,101005.67
2018-07-15T22:04:16.611Z,101005.51
2018-07-15T22:07:00.351Z,101006.50
2018-07-15T22:09:56.971Z,101008.44
2018-07-15T22:12:27.345Z,101016.25
2018-07-15T22:14:58.107Z,101014.89
2018-07-15T22:17:28.608Z,101016.15
2018-07-15T22:20:01.171Z,101015.05
2018-07-15T22:22:32.260Z,101017.16
2018-07-15T22:25:03.445Z,101013.73
2018-07-15T22:27:34.519Z,101014.84
2018-07-15T22:30:08.744Z,101012.78
2018-07-15T22:32:39.915Z,101014.78
2018-07-15T22:35:13.660Z,101006.09
2018-07-15T22:40:19.544Z,101012.21
2018-07-15T22:42:59.631Z,101008.27
2018-07-15T22:45:37.797Z,101006.36
2018-07-15T22:48:08.504Z,101008.48
2018-07-15T22:50:38.757Z,100999.24
2018-07-15T22:53:17.267Z,101001.09
2018-07-15T22:55:48.642Z,101002.57
2018-07-15T22:58:27.860Z,101004.70
2018-07-15T23:01:00.592Z,100995.35
2018-07-15T23:03:31.037Z,100997.30
2018-07-15T23:06:12.248Z,100995.03
2018-07-15T23:08:42.517Z,100986.73
2018-07-15T23:11:12.834Z,100988.23
2018-07-15T23:13:43.903Z,100985.69
2018-07-15T23:16:14.393Z,100985.66
2018-07-15T23:18:45.114Z,100981.78
2018-07-15T23:21:15.584Z,100984.33
2018-07-15T23:23:46.421Z,100989.35
2018-07-15T23:26:16.561Z,100988.02
2018-07-15T23:28:47.727Z,100989.91
2018-07-15T23:31:18.678Z,100993.78
2018-07-15T23:33:48.934Z,100986.56
2018-07-15T23:36:20.498Z,100990.18
2018-07-15T23:38:54.180Z,100986.78
2018-07-15T23:41:24.545Z,100987.96
2018-07-15T23:43:54.824Z,100984.53
2018-07-15T23:46:26.448Z,100990.09
2018-07-15T23:48:57.371Z,100993.06
2018-07-15T23:51:30.273Z,100994.54
2018-07-15T23:54:02.760Z,100989.86
2018-07-15T23:56:32.928Z,100985.19
2018-07-15T23:59:04.025Z,100996.06
